createdAt,value
2018-01-04T00:00:20.723Z,62.20
2018-01-04T00:01:25.676Z,62.20
2018-01-04T00:02:30.652Z,62.10
2018-01-04T00:03:35.431Z,62.20
2018-01-04T00:04:40.252Z,62.20
2018-01-04T00:05:45.042Z,62.20
2018-01-04T00:06:50.001Z,62.20
2018-01-04T00:07:54.896Z,62.10
2018-01-04T00:09:00.059Z,62.00
2018-01-04T00:10:04.855Z,62.20
2018-01-04T00:11:09.799Z,62.10
2018-01-04T00:12:14.894Z,62.10
2018-01-04T00:13:19.803Z,62.10
2018-01-04T00:14:25.385Z,62.10
2018-01-04T00:15:30.359Z,62.10
2018-01-04T00:16:35.262Z,62.10
2018-01-04T00:17:40.190Z,62.10
2018-01-04T00:18:45.151Z,62.10
2018-01-04T00:19:50.086Z,62.00
2018-01-04T00:20:54.943Z,62.00
2018-01-04T00:21:59.861Z,62.10
2018-01-04T00:23:04.773Z,62.00
2018-01-04T00:24:09.665Z,62.00
2018-01-04T00:25:14.659Z,62.00
2018-01-04T00:26:19.563Z,62.00
2018-01-04T00:27:24.886Z,62.10
2018-01-04T00:28:29.801Z,62.10
2018-01-04T00:29:34.720Z,62.00
2018-01-04T00:30:39.659Z,62.00
2018-01-04T00:31:44.509Z,62.00
2018-01-04T00:32:49.266Z,62.10
2018-01-04T00:33:54.058Z,62.10
2018-01-04T00:34:58.940Z,62.00
2018-01-04T00:36:03.821Z,62.00
2018-01-04T00:37:08.577Z,62.00
2018-01-04T00:38:13.463Z,62.00
2018-01-04T00:39:18.367Z,62.00
2018-01-04T00:40:23.223Z,62.00
2018-01-04T00:41:28.369Z,62.10
2018-01-04T00:42:33.265Z,62.10
2018-01-04T00:43:38.141Z,62.00
2018-01-04T00:44:42.883Z,62.00
2018-01-04T00:45:48.411Z,62.00
2018-01-04T00:46:53.294Z,62.00
2018-01-04T00:47:58.179Z,62.00
2018-01-04T00:49:02.971Z,61.90
2018-01-04T00:50:08.018Z,61.90
2018-01-04T00:51:12.813Z,61.90
2018-01-04T00:52:17.884Z,61.90
2018-01-04T00:53:22.686Z,62.00
2018-01-04T00:54:27.652Z,61.90
2018-01-04T00:55:32.502Z,61.90
2018-01-04T00:56:37.424Z,62.00
2018-01-04T00:57:42.424Z,62.00
2018-01-04T00:58:47.418Z,62.00
2018-01-04T00:59:52.329Z,62.00
2018-01-04T01:00:57.082Z,61.90
2018-01-04T01:02:01.902Z,61.90
2018-01-04T01:03:06.864Z,62.00
2018-01-04T01:04:12.397Z,61.90
2018-01-04T01:05:17.189Z,61.90
2018-01-04T01:06:22.032Z,61.90
2018-01-04T01:07:26.939Z,61.90
2018-01-04T01:08:31.713Z,62.00
2018-01-04T01:09:36.614Z,62.00
2018-01-04T01:10:41.397Z,61.90
2018-01-04T01:11:46.169Z,61.90
2018-01-04T01:12:51.038Z,61.90
2018-01-04T01:13:55.880Z,61.90
2018-01-04T01:15:00.748Z,62.00
2018-01-04T01:16:05.682Z,61.90
2018-01-04T01:17:10.474Z,61.90
2018-01-04T01:18:15.223Z,61.80
2018-01-04T01:19:20.182Z,61.80
2018-01-04T01:20:25.031Z,61.80
2018-01-04T01:21:29.893Z,61.80
2018-01-04T01:22:34.899Z,61.80
2018-01-04T01:23:39.801Z,61.90
2018-01-04T01:24:44.679Z,61.90
2018-01-04T01:25:49.720Z,61.90
2018-01-04T01:26:54.619Z,61.90
2018-01-04T01:27:59.412Z,61.80
2018-01-04T01:29:04.199Z,61.80
2018-01-04T01:30:08.935Z,61.90
2018-01-04T01:31:13.840Z,61.80
2018-01-04T01:32:18.781Z,61.90
2018-01-04T01:33:23.531Z,61.90
2018-01-04T01:34:28.302Z,61.80
2018-01-04T01:35:33.376Z,61.80
2018-01-04T01:36:38.216Z,61.80
2018-01-04T01:37:43.138Z,61.80
2018-01-04T01:38:47.957Z,61.80
2018-01-04T01:39:52.764Z,61.80
2018-01-04T01:40:58.650Z,61.80
2018-01-04T01:42:03.725Z,61.90
2018-01-04T01:43:08.790Z,61.90
2018-01-04T01:44:13.683Z,61.90
2018-01-04T01:45:18.716Z,61.80
2018-01-04T01:46:23.791Z,61.80
2018-01-04T01:47:28.641Z,61.80
2018-01-04T01:48:33.639Z,61.80
2018-01-04T01:49:38.621Z,61.90
2018-01-04T01:50:43.629Z,61.90
2018-01-04T01:51:48.431Z,61.80
2018-01-04T01:52:53.426Z,61.80
2018-01-04T01:53:58.241Z,61.80
2018-01-04T01:55:03.069Z,61.80
2018-01-04T01:56:08.150Z,61.80
2018-01-04T01:57:13.151Z,61.80
2018-01-04T01:58:18.222Z,61.70
2018-01-04T01:59:24.305Z,61.70
2018-01-04T02:00:29.239Z,61.70
2018-01-04T02:01:34.006Z,61.70
2018-01-04T02:02:38.808Z,61.80
2018-01-04T02:03:43.830Z,61.70
2018-01-04T02:04:48.656Z,61.80
2018-01-04T02:05:53.554Z,61.70
2018-01-04T02:06:58.492Z,61.80
2018-01-04T02:08:03.379Z,61.70
2018-01-04T02:09:08.108Z,61.70
2018-01-04T02:10:13.037Z,61.70
2018-01-04T02:11:18.000Z,61.70
2018-01-04T02:12:22.982Z,61.70
2018-01-04T02:13:27.798Z,61.70
2018-01-04T02:14:32.546Z,61.80
2018-01-04T02:15:37.403Z,61.80
2018-01-04T02:16:42.243Z,61.80
2018-01-04T02:17:48.252Z,61.80
2018-01-04T02:18:53.144Z,61.70
2018-01-04T02:19:57.871Z,61.70
2018-01-04T02:21:02.862Z,61.70
2018-01-04T02:22:07.881Z,61.70
2018-01-04T02:23:12.729Z,61.80
2018-01-04T02:24:17.513Z,61.70
2018-01-04T02:25:22.280Z,61.70
2018-01-04T02:26:27.127Z,61.70
2018-01-04T02:27:31.861Z,61.70
2018-01-04T02:28:36.681Z,61.80
2018-01-04T02:29:41.571Z,61.80
2018-01-04T02:30:46.390Z,61.70
2018-01-04T02:31:51.219Z,61.70
2018-01-04T02:32:56.120Z,61.80
2018-01-04T02:34:00.940Z,61.70
2018-01-04T02:35:05.698Z,61.70
2018-01-04T02:36:11.691Z,61.70
2018-01-04T02:37:16.606Z,61.80
2018-01-04T02:38:21.386Z,61.80
2018-01-04T02:39:26.237Z,61.70
2018-01-04T02:40:31.144Z,61.70
2018-01-04T02:41:35.934Z,61.70
2018-01-04T02:42:40.723Z,61.70
2018-01-04T02:43:45.550Z,61.70
2018-01-04T02:44:50.374Z,61.70
2018-01-04T02:45:55.189Z,61.70
2018-01-04T02:47:00.081Z,61.70
2018-01-04T02:48:04.891Z,61.70
2018-01-04T02:49:09.784Z,61.70
2018-01-04T02:50:14.967Z,61.70
2018-01-04T02:51:19.830Z,61.70
2018-01-04T02:52:24.707Z,61.70
2018-01-04T02:53:29.527Z,61.80
2018-01-04T02:54:35.399Z,61.70
2018-01-04T02:55:40.150Z,61.70
2018-01-04T02:56:45.060Z,61.70
2018-01-04T02:57:49.994Z,61.70
2018-01-04T02:58:54.693Z,61.90
2018-01-04T02:59:59.441Z,61.70
2018-01-04T03:01:04.285Z,61.70
2018-01-04T03:02:09.099Z,61.70
2018-01-04T03:03:14.013Z,61.70
2018-01-04T03:04:18.912Z,61.70
2018-01-04T03:05:23.761Z,61.70
2018-01-04T03:06:28.672Z,61.70
2018-01-04T03:07:33.516Z,61.60
2018-01-04T03:08:38.563Z,61.60
2018-01-04T03:09:43.461Z,61.60
2018-01-04T03:10:48.425Z,61.60
2018-01-04T03:11:53.239Z,61.60
2018-01-04T03:12:59.124Z,61.60
2018-01-04T03:14:04.195Z,61.60
2018-01-04T03:15:09.051Z,61.60
2018-01-04T03:16:13.955Z,61.60
2018-01-04T03:17:18.924Z,61.60
2018-01-04T03:18:23.817Z,61.60
2018-01-04T03:19:28.721Z,61.60
2018-01-04T03:20:33.733Z,61.60
2018-01-04T03:21:38.640Z,61.70
2018-01-04T03:22:43.528Z,61.60
2018-01-04T03:23:48.443Z,61.60
2018-01-04T03:24:53.335Z,61.60
2018-01-04T03:25:58.124Z,61.50
2018-01-04T03:27:02.905Z,61.60
2018-01-04T03:28:07.647Z,61.50
2018-01-04T03:29:12.432Z,61.50
2018-01-04T03:30:17.342Z,61.50
2018-01-04T03:31:23.398Z,62.20
2018-01-04T03:32:28.332Z,61.50
2018-01-04T03:33:33.149Z,61.50
2018-01-04T03:34:37.928Z,61.50
2018-01-04T03:35:42.666Z,61.50
2018-01-04T03:36:47.446Z,61.50
2018-01-04T03:37:52.331Z,61.50
2018-01-04T03:38:57.186Z,61.50
2018-01-04T03:40:02.035Z,61.60
2018-01-04T03:41:06.884Z,61.60
2018-01-04T03:42:11.623Z,61.60
2018-01-04T03:43:16.409Z,61.60
2018-01-04T03:44:21.167Z,61.50
2018-01-04T03:45:25.999Z,62.20
2018-01-04T03:46:30.885Z,61.50
2018-01-04T03:47:35.703Z,61.60
2018-01-04T03:48:40.528Z,61.60
2018-01-04T03:49:46.022Z,61.60
2018-01-04T03:50:50.951Z,61.60
2018-01-04T03:51:55.785Z,61.60
2018-01-04T03:53:00.661Z,61.60
2018-01-04T03:54:05.563Z,61.60
2018-01-04T03:55:10.514Z,61.60
2018-01-04T03:56:15.350Z,61.60
2018-01-04T03:57:20.360Z,61.60
2018-01-04T03:58:25.130Z,61.60
2018-01-04T03:59:30.374Z,62.20
2018-01-04T04:00:35.144Z,61.60
2018-01-04T04:01:39.975Z,61.60
2018-01-04T04:02:44.860Z,61.60
2018-01-04T04:03:49.804Z,61.60
2018-01-04T04:04:54.536Z,61.50
2018-01-04T04:05:59.311Z,61.50
2018-01-04T04:07:04.563Z,61.50
2018-01-04T04:08:10.098Z,61.60
2018-01-04T04:09:14.966Z,61.50
2018-01-04T04:10:19.838Z,61.50
2018-01-04T04:11:24.548Z,61.60
2018-01-04T04:12:29.444Z,61.50
2018-01-04T04:13:34.297Z,61.50
2018-01-04T04:14:39.128Z,61.50
2018-01-04T04:15:43.923Z,61.50
2018-01-04T04:16:48.649Z,61.60
2018-01-04T04:17:53.424Z,61.50
2018-01-04T04:18:58.260Z,61.50
2018-01-04T04:20:03.054Z,61.50
2018-01-04T04:21:07.827Z,62.20
2018-01-04T04:22:12.658Z,61.50
2018-01-04T04:23:17.451Z,61.50
2018-01-04T04:24:22.256Z,61.60
2018-01-04T04:25:27.000Z,61.50
2018-01-04T04:26:31.792Z,61.50
2018-01-04T04:27:37.066Z,61.50
2018-01-04T04:28:41.976Z,61.50
2018-01-04T04:29:46.827Z,61.50
2018-01-04T04:30:51.539Z,61.50
2018-01-04T04:31:56.314Z,61.40
2018-01-04T04:33:01.164Z,61.40
2018-01-04T04:34:05.967Z,61.50
2018-01-04T04:35:10.760Z,61.50
2018-01-04T04:36:15.654Z,61.50
2018-01-04T04:37:20.466Z,61.50
2018-01-04T04:38:25.352Z,61.40
2018-01-04T04:39:30.273Z,61.40
2018-01-04T04:40:35.181Z,61.40
2018-01-04T04:41:39.966Z,61.40
2018-01-04T04:42:44.826Z,61.40
2018-01-04T04:43:49.605Z,61.40
2018-01-04T04:44:54.364Z,61.40
2018-01-04T04:45:59.126Z,61.40
2018-01-04T04:47:03.906Z,61.40
2018-01-04T04:48:08.722Z,61.50
2018-01-04T04:49:14.773Z,61.40
2018-01-04T04:50:19.532Z,61.40
2018-01-04T04:51:24.312Z,61.40
2018-01-04T04:52:29.025Z,61.40
2018-01-04T04:53:33.756Z,61.50
2018-01-04T04:54:38.608Z,61.50
2018-01-04T04:55:43.737Z,61.50
2018-01-04T04:56:48.495Z,61.50
2018-01-04T04:57:53.197Z,61.50
2018-01-04T04:58:58.057Z,61.50
2018-01-04T05:00:02.865Z,61.50
2018-01-04T05:01:07.703Z,61.50
2018-01-04T05:02:15.399Z,61.50
2018-01-04T05:03:20.722Z,61.40
2018-01-04T05:04:26.097Z,61.50
2018-01-04T05:05:30.912Z,61.40
2018-01-04T05:06:36.480Z,61.40
2018-01-04T05:07:41.515Z,61.50
2018-01-04T05:08:46.441Z,61.40
2018-01-04T05:09:51.190Z,61.40
2018-01-04T05:10:56.154Z,61.40
2018-01-04T05:12:01.113Z,61.50
2018-01-04T05:13:05.875Z,61.40
2018-01-04T05:14:10.777Z,61.50
2018-01-04T05:15:15.543Z,61.50
2018-01-04T05:16:20.335Z,61.50
2018-01-04T05:17:25.197Z,61.50
2018-01-04T05:18:30.030Z,61.50
2018-01-04T05:19:34.818Z,61.50
2018-01-04T05:20:39.628Z,62.20
2018-01-04T05:21:44.885Z,61.50
2018-01-04T05:22:50.411Z,61.50
2018-01-04T05:23:55.332Z,61.50
2018-01-04T05:25:00.228Z,61.50
2018-01-04T05:26:05.161Z,61.50
2018-01-04T05:27:10.067Z,61.50
2018-01-04T05:28:14.973Z,61.50
2018-01-04T05:29:20.613Z,61.50
2018-01-04T05:30:25.760Z,61.50
2018-01-04T05:31:30.603Z,61.50
2018-01-04T05:32:35.455Z,61.40
2018-01-04T05:33:40.304Z,61.40
2018-01-04T05:34:45.118Z,61.50
2018-01-04T05:35:50.118Z,61.40
2018-01-04T05:36:55.190Z,61.80
2018-01-04T05:38:00.103Z,61.50
2018-01-04T05:39:04.906Z,61.40
2018-01-04T05:40:10.878Z,61.50
2018-01-04T05:41:15.856Z,61.50
2018-01-04T05:42:20.672Z,61.50
2018-01-04T05:43:25.548Z,61.40
2018-01-04T05:44:30.457Z,61.40
2018-01-04T05:45:35.324Z,61.40
2018-01-04T05:46:40.080Z,62.00
2018-01-04T05:47:45.624Z,61.20
2018-01-04T05:48:50.468Z,58.60
2018-01-04T05:49:55.270Z,57.20
2018-01-04T05:51:00.231Z,57.70
2018-01-04T05:52:05.154Z,56.80
2018-01-04T05:53:09.964Z,54.80
2018-01-04T05:54:14.756Z,55.60
2018-01-04T05:55:19.770Z,56.00
2018-01-04T05:56:25.287Z,56.40
2018-01-04T05:57:30.516Z,56.00
2018-01-04T05:58:35.416Z,55.70
2018-01-04T05:59:40.423Z,55.70
2018-01-04T06:00:45.282Z,55.70
2018-01-04T06:01:50.133Z,55.60
2018-01-04T06:02:54.936Z,55.70
2018-01-04T06:04:00.493Z,55.70
2018-01-04T06:05:05.377Z,55.80
2018-01-04T06:06:10.204Z,55.80
2018-01-04T06:07:15.038Z,55.80
2018-01-04T06:08:19.935Z,55.80
2018-01-04T06:09:24.749Z,55.90
2018-01-04T06:10:30.236Z,55.90
2018-01-04T06:11:35.113Z,55.80
2018-01-04T06:12:39.957Z,55.90
2018-01-04T06:13:44.965Z,55.80
2018-01-04T06:14:49.827Z,55.70
2018-01-04T06:15:54.706Z,55.70
2018-01-04T06:16:59.556Z,55.70
2018-01-04T06:18:04.486Z,55.60
2018-01-04T06:19:09.396Z,55.70
2018-01-04T06:20:14.333Z,55.60
2018-01-04T06:21:19.121Z,55.60
2018-01-04T06:22:23.881Z,55.70
2018-01-04T06:23:28.626Z,55.60
2018-01-04T06:24:33.395Z,55.70
2018-01-04T06:25:38.204Z,55.70
2018-01-04T06:26:43.073Z,55.70
2018-01-04T06:27:47.832Z,55.70
2018-01-04T06:28:53.590Z,55.80
2018-01-04T06:29:58.316Z,55.80
2018-01-04T06:31:03.249Z,55.70
2018-01-04T06:32:08.032Z,55.80
2018-01-04T06:33:12.850Z,55.60
2018-01-04T06:34:17.830Z,55.80
2018-01-04T06:35:22.592Z,55.70
2018-01-04T06:36:27.433Z,55.70
2018-01-04T06:37:32.358Z,55.70
2018-01-04T06:38:37.255Z,55.80
2018-01-04T06:39:42.058Z,56.50
2018-01-04T06:40:47.103Z,55.90
2018-01-04T06:41:52.038Z,55.80
2018-01-04T06:42:56.916Z,55.80
2018-01-04T06:44:02.067Z,55.80
2018-01-04T06:45:07.033Z,55.90
2018-01-04T06:46:11.941Z,56.10
2018-01-04T06:47:17.561Z,56.20
2018-01-04T06:48:22.342Z,56.50
2018-01-04T06:49:27.101Z,56.70
2018-01-04T06:50:32.077Z,56.90
2018-01-04T06:51:36.961Z,57.00
2018-01-04T06:52:41.910Z,57.10
2018-01-04T06:53:46.954Z,57.20
2018-01-04T06:54:51.959Z,57.30
2018-01-04T06:55:56.986Z,57.30
2018-01-04T06:57:01.873Z,57.40
2018-01-04T06:58:06.775Z,57.30
2018-01-04T06:59:11.666Z,57.30
2018-01-04T07:00:16.733Z,57.40
2018-01-04T07:01:21.949Z,57.40
2018-01-04T07:02:26.843Z,57.50
2018-01-04T07:03:31.655Z,57.60
2018-01-04T07:04:36.665Z,57.60
2018-01-04T07:05:42.394Z,57.60
2018-01-04T07:06:47.348Z,57.60
2018-01-04T07:07:52.285Z,57.50
2018-01-04T07:08:57.944Z,57.50
2018-01-04T07:10:02.760Z,57.50
2018-01-04T07:11:07.827Z,57.50
2018-01-04T07:12:12.601Z,57.60
2018-01-04T07:13:17.743Z,57.60
2018-01-04T07:14:22.772Z,57.70
2018-01-04T07:15:27.731Z,57.70
2018-01-04T07:16:32.639Z,57.70
2018-01-04T07:17:37.399Z,57.90
2018-01-04T07:18:42.292Z,57.90
2018-01-04T07:19:47.218Z,57.90
2018-01-04T07:20:52.164Z,58.70
2018-01-04T07:21:56.957Z,58.20
2018-01-04T07:23:01.895Z,58.10
2018-01-04T07:24:07.160Z,58.10
2018-01-04T07:25:11.997Z,58.10
2018-01-04T07:26:17.148Z,58.10
2018-01-04T07:27:22.000Z,58.10
2018-01-04T07:28:26.916Z,58.00
2018-01-04T07:29:31.727Z,58.10
2018-01-04T07:30:36.770Z,58.00
2018-01-04T07:31:41.763Z,57.90
2018-01-04T07:32:46.829Z,57.90
2018-01-04T07:33:51.764Z,57.90
2018-01-04T07:34:56.633Z,57.90
2018-01-04T07:36:01.508Z,57.90
2018-01-04T07:37:06.349Z,57.80
2018-01-04T07:38:11.210Z,57.80
2018-01-04T07:39:16.148Z,57.70
2018-01-04T07:40:21.163Z,57.80
2018-01-04T07:41:26.407Z,57.80
2018-01-04T07:42:31.518Z,57.70
2018-01-04T07:43:36.576Z,57.70
2018-01-04T07:44:41.578Z,57.70
2018-01-04T07:45:46.505Z,57.60
2018-01-04T07:46:51.419Z,57.10
2018-01-04T07:47:56.189Z,56.80
2018-01-04T07:49:00.880Z,56.40
2018-01-04T07:50:05.745Z,56.20
2018-01-04T07:51:10.728Z,56.10
2018-01-04T07:52:15.916Z,55.80
2018-01-04T07:53:20.736Z,55.90
2018-01-04T07:54:25.608Z,55.90
2018-01-04T07:55:30.626Z,56.00
2018-01-04T07:56:35.477Z,56.10
2018-01-04T07:57:40.249Z,56.20
2018-01-04T07:58:45.193Z,56.30
2018-01-04T07:59:50.002Z,56.40
2018-01-04T08:00:55.402Z,56.60
2018-01-04T08:02:00.242Z,56.60
2018-01-04T08:03:05.214Z,56.70
2018-01-04T08:04:09.969Z,56.90
2018-01-04T08:05:14.894Z,56.80
2018-01-04T08:06:19.653Z,56.90
2018-01-04T08:07:24.446Z,56.90
2018-01-04T08:08:29.611Z,57.00
2018-01-04T08:09:34.474Z,57.00
2018-01-04T08:10:39.988Z,57.10
2018-01-04T08:11:45.412Z,57.10
2018-01-04T08:12:50.249Z,57.10
2018-01-04T08:13:55.148Z,57.10
2018-01-04T08:14:59.952Z,57.10
2018-01-04T08:16:05.036Z,57.10
2018-01-04T08:17:10.151Z,57.10
2018-01-04T08:18:15.163Z,57.10
2018-01-04T08:19:20.305Z,57.20
2018-01-04T08:20:25.327Z,57.20
2018-01-04T08:21:30.207Z,57.20
2018-01-04T08:22:35.298Z,57.40
2018-01-04T08:23:40.308Z,57.40
2018-01-04T08:24:45.173Z,57.50
2018-01-04T08:25:50.030Z,57.50
2018-01-04T08:26:54.927Z,57.50
2018-01-04T08:27:59.860Z,57.60
2018-01-04T08:29:04.742Z,57.70
2018-01-04T08:30:09.871Z,57.90
2018-01-04T08:31:14.800Z,58.00
2018-01-04T08:32:20.114Z,58.10
2018-01-04T08:33:24.901Z,58.20
2018-01-04T08:34:29.838Z,58.30
2018-01-04T08:35:34.753Z,58.30
2018-01-04T08:36:39.571Z,58.30
2018-01-04T08:37:44.494Z,58.30
2018-01-04T08:38:49.394Z,58.30
2018-01-04T08:39:54.334Z,58.30
2018-01-04T08:40:59.210Z,58.30
2018-01-04T08:42:04.401Z,58.40
2018-01-04T08:43:09.953Z,58.30
2018-01-04T08:44:15.246Z,58.40
2018-01-04T08:45:20.598Z,58.40
2018-01-04T08:46:26.390Z,58.30
2018-01-04T08:47:31.652Z,58.30
2018-01-04T08:48:36.795Z,58.40
2018-01-04T08:49:42.199Z,58.40
2018-01-04T08:50:47.344Z,58.30
2018-01-04T08:51:52.473Z,58.30
2018-01-04T08:52:57.906Z,58.50
2018-01-04T08:54:03.257Z,58.60
2018-01-04T08:55:08.362Z,58.60
2018-01-04T08:56:13.278Z,58.60
2018-01-04T08:57:21.352Z,58.70
2018-01-04T08:58:26.904Z,58.70
2018-01-04T08:59:32.029Z,59.10
2018-01-04T09:00:36.937Z,59.10
2018-01-04T09:01:41.972Z,59.00
2018-01-04T09:02:47.001Z,59.10
2018-01-04T09:03:52.313Z,59.10
2018-01-04T09:04:57.357Z,59.20
2018-01-04T09:06:02.399Z,59.20
2018-01-04T09:07:07.496Z,59.20
2018-01-04T09:08:12.377Z,59.30
2018-01-04T09:09:17.261Z,59.20
2018-01-04T09:10:22.125Z,59.30
2018-01-04T09:11:27.153Z,59.40
2018-01-04T09:12:32.065Z,59.50
2018-01-04T09:13:37.624Z,59.70
2018-01-04T09:14:43.003Z,59.80
2018-01-04T09:15:48.338Z,60.40
2018-01-04T09:16:53.414Z,60.20
2018-01-04T09:17:58.284Z,60.20
2018-01-04T09:19:03.290Z,60.10
2018-01-04T09:20:08.215Z,60.10
2018-01-04T09:21:13.374Z,60.10
2018-01-04T09:22:18.296Z,60.20
2018-01-04T09:23:23.465Z,60.30
2018-01-04T09:24:28.418Z,60.30
2018-01-04T09:25:33.481Z,60.30
2018-01-04T09:26:38.325Z,60.50
2018-01-04T09:27:43.280Z,60.60
2018-01-04T09:28:48.202Z,60.50
2018-01-04T09:29:53.161Z,60.70
2018-01-04T09:30:58.023Z,61.00
2018-01-04T09:32:02.971Z,61.00
2018-01-04T09:33:07.811Z,61.00
2018-01-04T09:34:12.558Z,61.20
2018-01-04T09:35:18.192Z,61.20
2018-01-04T09:36:22.974Z,61.10
2018-01-04T09:37:27.998Z,61.20
2018-01-04T09:38:32.906Z,61.20
2018-01-04T09:39:37.922Z,61.20
2018-01-04T09:40:42.868Z,61.20
2018-01-04T09:41:48.160Z,61.30
2018-01-04T09:42:53.228Z,61.40
2018-01-04T09:43:58.024Z,61.40
2018-01-04T09:45:02.954Z,61.50
2018-01-04T09:46:07.808Z,61.60
2018-01-04T09:47:12.622Z,61.60
2018-01-04T09:48:17.580Z,61.50
2018-01-04T09:49:23.233Z,61.70
2018-01-04T09:50:28.209Z,61.70
2018-01-04T09:51:35.928Z,61.70
2018-01-04T09:52:40.664Z,61.70
2018-01-04T09:53:45.407Z,61.80
2018-01-04T09:54:50.436Z,61.60
2018-01-04T09:55:55.178Z,61.60
2018-01-04T09:57:00.127Z,61.70
2018-01-04T09:58:17.604Z,61.70
2018-01-04T09:59:22.567Z,61.70
2018-01-04T10:00:27.495Z,61.80
2018-01-04T10:01:32.678Z,61.80
2018-01-04T10:02:37.586Z,61.70
2018-01-04T10:03:42.621Z,61.80
2018-01-04T10:04:50.932Z,61.70
2018-01-04T10:05:55.775Z,61.70
2018-01-04T10:07:00.945Z,61.70
2018-01-04T10:08:05.841Z,62.40
2018-01-04T10:09:10.919Z,62.40
2018-01-04T10:10:15.991Z,61.70
2018-01-04T10:11:21.102Z,61.70
2018-01-04T10:12:25.904Z,61.60
2018-01-04T10:13:31.488Z,61.50
2018-01-04T10:14:36.455Z,61.40
2018-01-04T10:15:41.420Z,61.50
2018-01-04T10:16:46.318Z,61.50
2018-01-04T10:17:51.191Z,61.50
2018-01-04T10:18:56.130Z,61.50
2018-01-04T10:20:01.201Z,61.50
2018-01-04T10:21:06.276Z,61.50
2018-01-04T10:22:11.091Z,61.60
2018-01-04T10:23:15.911Z,61.50
2018-01-04T10:24:20.740Z,61.50
2018-01-04T10:25:25.620Z,61.50
2018-01-04T10:26:30.590Z,61.50
2018-01-04T10:27:35.409Z,61.60
2018-01-04T10:28:42.291Z,61.60
2018-01-04T10:29:48.337Z,61.60
2018-01-04T10:30:57.384Z,61.60
2018-01-04T10:32:03.796Z,61.60
2018-01-04T10:33:11.143Z,61.60
2018-01-04T10:34:16.832Z,62.00
2018-01-04T10:35:21.798Z,62.30
2018-01-04T10:36:26.977Z,62.40
2018-01-04T10:37:31.809Z,62.50
2018-01-04T10:38:36.643Z,62.40
2018-01-04T10:39:41.619Z,62.30
2018-01-04T10:40:46.443Z,62.50
2018-01-04T10:41:51.500Z,62.60
2018-01-04T10:42:59.301Z,63.00
2018-01-04T10:44:05.193Z,63.30
2018-01-04T10:45:10.489Z,63.70
2018-01-04T10:46:15.965Z,63.70
2018-01-04T10:47:22.028Z,63.80
2018-01-04T10:48:26.921Z,63.70
2018-01-04T10:49:31.762Z,63.60
2018-01-04T10:50:36.703Z,63.80
2018-01-04T10:51:41.663Z,63.90
2018-01-04T10:52:46.631Z,64.10
2018-01-04T10:53:51.510Z,64.40
2018-01-04T10:54:56.401Z,64.20
2018-01-04T10:56:01.216Z,64.00
2018-01-04T10:57:06.324Z,63.90
2018-01-04T10:58:11.419Z,64.00
2018-01-04T10:59:16.320Z,64.20
2018-01-04T11:00:21.152Z,64.30
2018-01-04T11:01:25.954Z,64.10
2018-01-04T11:02:30.814Z,63.90
2018-01-04T11:03:35.635Z,64.00
2018-01-04T11:04:40.683Z,64.20
2018-01-04T11:05:45.872Z,64.40
2018-01-04T11:06:50.773Z,64.30
2018-01-04T11:07:56.889Z,64.10
2018-01-04T11:09:02.107Z,64.00
2018-01-04T11:10:07.068Z,63.90
2018-01-04T11:11:12.004Z,63.70
2018-01-04T11:12:16.773Z,63.60
2018-01-04T11:13:21.609Z,63.40
2018-01-04T11:14:26.568Z,63.30
2018-01-04T11:15:31.332Z,62.90
2018-01-04T11:16:36.925Z,62.80
2018-01-04T11:17:41.708Z,62.70
2018-01-04T11:18:46.591Z,62.50
2018-01-04T11:19:51.475Z,62.40
2018-01-04T11:20:56.291Z,62.40
2018-01-04T11:22:01.109Z,62.30
2018-01-04T11:23:06.037Z,62.30
2018-01-04T11:24:10.753Z,62.20
2018-01-04T11:25:15.614Z,62.20
2018-01-04T11:26:20.516Z,62.20
2018-01-04T11:27:25.369Z,62.20
2018-01-04T11:28:30.250Z,62.20
2018-01-04T11:29:35.068Z,62.20
2018-01-04T11:30:39.937Z,62.20
2018-01-04T11:31:44.924Z,62.10
2018-01-04T11:32:49.730Z,62.20
2018-01-04T11:33:54.634Z,62.10
2018-01-04T11:34:59.454Z,62.10
2018-01-04T11:36:04.347Z,62.10
2018-01-04T11:37:09.330Z,62.00
2018-01-04T11:38:14.240Z,62.00
2018-01-04T11:39:19.161Z,62.00
2018-01-04T11:40:23.954Z,61.90
2018-01-04T11:41:29.079Z,61.70
2018-01-04T11:42:33.899Z,61.30
2018-01-04T11:43:38.717Z,60.90
2018-01-04T11:44:43.754Z,60.90
2018-01-04T11:45:48.828Z,60.80
2018-01-04T11:46:53.703Z,60.50
2018-01-04T11:47:58.683Z,59.40
2018-01-04T11:49:03.519Z,59.50
2018-01-04T11:50:08.280Z,56.90
2018-01-04T11:51:13.257Z,57.40
2018-01-04T11:52:18.289Z,58.20
2018-01-04T11:53:23.290Z,58.70
2018-01-04T11:54:28.374Z,58.50
2018-01-04T11:55:33.255Z,57.90
2018-01-04T11:56:38.071Z,57.80
2018-01-04T11:57:42.982Z,57.80
2018-01-04T11:58:48.491Z,57.70
2018-01-04T11:59:53.401Z,57.30
2018-01-04T12:00:58.283Z,57.00
2018-01-04T12:02:03.119Z,56.60
2018-01-04T12:03:07.894Z,56.90
2018-01-04T12:04:12.805Z,57.00
2018-01-04T12:05:17.749Z,56.70
2018-01-04T12:06:22.616Z,56.60
2018-01-04T12:07:27.491Z,56.40
2018-01-04T12:08:32.385Z,56.10
2018-01-04T12:09:37.178Z,55.00
2018-01-04T12:10:41.956Z,55.30
2018-01-04T12:11:46.803Z,55.30
2018-01-04T12:12:51.698Z,54.60
2018-01-04T12:13:56.483Z,54.60
2018-01-04T12:15:01.244Z,55.20
2018-01-04T12:16:06.147Z,54.50
2018-01-04T12:17:11.026Z,54.70
2018-01-04T12:18:16.017Z,54.90
2018-01-04T12:19:20.878Z,54.40
2018-01-04T12:20:25.817Z,54.70
2018-01-04T12:21:30.842Z,54.10
2018-01-04T12:22:35.994Z,53.60
2018-01-04T12:23:40.775Z,54.50
2018-01-04T12:24:45.788Z,53.10
2018-01-04T12:25:51.222Z,54.20
2018-01-04T12:26:56.255Z,54.50
2018-01-04T12:28:01.105Z,54.70
2018-01-04T12:29:06.031Z,53.70
2018-01-04T12:30:10.932Z,54.30
2018-01-04T12:31:15.727Z,54.40
2018-01-04T12:32:20.565Z,54.40
2018-01-04T12:33:25.305Z,53.80
2018-01-04T12:34:30.097Z,54.00
2018-01-04T12:35:34.972Z,54.20
2018-01-04T12:36:39.937Z,54.10
2018-01-04T12:37:44.710Z,54.10
2018-01-04T12:38:49.595Z,53.70
2018-01-04T12:39:54.511Z,53.90
2018-01-04T12:40:59.234Z,53.60
2018-01-04T12:42:04.111Z,52.90
2018-01-04T12:43:08.888Z,53.10
2018-01-04T12:44:13.633Z,53.60
2018-01-04T12:45:18.366Z,53.90
2018-01-04T12:46:23.495Z,53.50
2018-01-04T12:47:28.360Z,53.20
2018-01-04T12:48:33.321Z,53.70
2018-01-04T12:49:38.027Z,53.50
2018-01-04T12:50:42.851Z,53.20
2018-01-04T12:51:47.655Z,52.10
2018-01-04T12:52:52.411Z,52.90
2018-01-04T12:53:57.236Z,53.30
2018-01-04T12:55:02.366Z,53.60
2018-01-04T12:56:07.448Z,53.00
2018-01-04T12:57:12.279Z,52.20
2018-01-04T12:58:17.325Z,52.80
2018-01-04T12:59:22.549Z,53.30
2018-01-04T13:00:27.535Z,52.60
2018-01-04T13:01:32.569Z,53.00
2018-01-04T13:02:37.637Z,53.00
2018-01-04T13:03:42.471Z,52.60
2018-01-04T13:04:47.351Z,53.20
2018-01-04T13:05:52.205Z,53.40
2018-01-04T13:06:57.307Z,53.50
2018-01-04T13:08:02.686Z,53.20
2018-01-04T13:09:07.670Z,53.40
2018-01-04T13:10:12.765Z,53.40
2018-01-04T13:11:18.065Z,53.40
2018-01-04T13:12:23.121Z,53.40
2018-01-04T13:13:28.576Z,53.30
2018-01-04T13:14:33.626Z,53.20
2018-01-04T13:15:38.690Z,53.30
2018-01-04T13:16:43.766Z,53.70
2018-01-04T13:17:48.756Z,53.60
2018-01-04T13:18:53.667Z,53.30
2018-01-04T13:19:58.663Z,53.30
2018-01-04T13:21:03.511Z,53.40
2018-01-04T13:22:08.428Z,53.00
2018-01-04T13:23:13.348Z,52.90
2018-01-04T13:24:18.277Z,53.50
2018-01-04T13:25:23.141Z,53.40
2018-01-04T13:26:27.954Z,53.30
2018-01-04T13:27:32.970Z,53.70
2018-01-04T13:28:37.979Z,53.50
2018-01-04T13:29:43.020Z,53.70
2018-01-04T13:30:47.929Z,53.70
2018-01-04T13:31:53.167Z,53.70
2018-01-04T13:32:58.405Z,53.80
2018-01-04T13:34:03.630Z,53.60
2018-01-04T13:35:09.665Z,53.60
2018-01-04T13:36:14.440Z,53.70
2018-01-04T13:37:19.290Z,53.60
2018-01-04T13:38:24.322Z,53.60
2018-01-04T13:39:29.270Z,53.80
2018-01-04T13:40:34.045Z,54.10
2018-01-04T13:41:38.943Z,54.30
2018-01-04T13:42:43.911Z,54.60
2018-01-04T13:43:48.796Z,54.70
2018-01-04T13:44:53.858Z,55.10
2018-01-04T13:45:59.050Z,55.70
2018-01-04T13:47:05.006Z,55.60
2018-01-04T13:48:10.460Z,55.80
2018-01-04T13:49:16.097Z,55.70
2018-01-04T13:50:21.417Z,55.80
2018-01-04T13:51:26.336Z,56.00
2018-01-04T13:52:31.247Z,56.20
2018-01-04T13:53:36.246Z,56.20
2018-01-04T13:54:41.501Z,56.30
2018-01-04T13:55:47.632Z,56.40
2018-01-04T13:56:52.546Z,56.40